Elberon, Virginia
Current Conditions -  °F | °C
As of 2:54 PM on Monday 24 Nov 2014 (Local Time) from KAKQ Reporting Station
Scattered Clouds Scattered Clouds  
Wind Chill: 73°   Ceiling: Unl
Heat Index: 73°   Visibility: 10mi
Dew Point: 60°   Wind: 16mph
Humidity: 64%   Direction: 200°SSW
Pressure: 29.75"   Gusts: 26mph
Location:  37.06°N, 76.84°W
Report Text: KAKQ 241954Z AUTO 20014G23KT 10SM FEW032 FEW090 SCT110 23/16 A2975 RMK AO2 SLP072 T02280156 TSNO
Loading
Personal Weather Stations






























Interactive Weather Map New forecast layout! Learn more

10-Day Weather Forecast

Advertisements
Track Severe Weather on mobile